Česky Dansk Deutsch English Español Suomi Français Magyar Italiano Nederlands norsk Polski Português svenska Türkçe

 

Het Weer

Zonguldak (Turkije)

14:50, 16 augustus 2016 (GMT)

NWNNE
WE
SWSSE
Home            
Zonguldak Topel Tur-Afb Murted Tur-Afb Ankara / Esenboga Ankara / Etimesgut Ankara / Guvercin Lik Eskisehir Istanbul / Sabiha Gokcen Sivrihisar Bursa / Yenisehir, Mil-Civ Istanbul / Ataturk Bursa Afyon Merzifon Corlu Bandirma Usak Varna Burgas Samsun Nevsehir Balikesir Konya

Om een weerknop op uw website of weblog te plaatsen, copieer onderstaande code en plak die in uw pagina. In het eerste vakje staat HTML-code, in het tweede vakje UBB-code.


Add to Google

Details

Wind speed:3 bf, 10 kn, 5.1 m/s, 11.5 miles/h, 18.5 km/h
Wind direction:WSW, 250°
Visibility:Greater than 10000 m, 10 km, 32800 ft, 6.2 miles
Clouds:Ein wenig bewölkt at 4000 ft, 1219 m
Temperature:26°C, 79°F
Gefühlte Temperatur:27°C, 81°F
Dew-point:17°C, 63°F
Atmospheric pressure:1012 hPa, 759.1 mmHg, 29.88 inHg, 0.999 atm
Relative humidity:57.6 %
METAR:LTAS 161450Z 25010KT 9999 FEW040 26/17 Q1012

Snelkoppelingen

Actuele weersinformatie van de hele wereld. Voeg locaties toe met het plus (+) symbool. Deze snelkoppelingen kunnen worden toegevoegd aan Google.

Lid van de Technetium groep

website free tracking
StatCounter NetStat W3C Validator

19-05-2022 05:09:45
astro.technetium.be money.technetium.be phote.technetium.be tafeltennistafel.technetium.be www.ligfiets.net